Terminal Aerodrome Forecast
Issued by NWS St Louis, MO

Home | Current Version | Previous Version | Text Only | Print | Product List | Glossary On
Versions: 1 2 3 4 5 6 7 8 9 10 11 12 13 14
000
FTUS43 KLSX 301700
TAFCOU
TAF
KCOU 301720Z 3018/3118 VRB04KT P6SM BKN250
     FM310000 14005KT P6SM BKN150
     FM311200 19005KT P6SM OVC080
     FM311500 19006KT P6SM -RA OVC050=

USA.gov is the U.S. government's official web portal to all federal, state and local government web resources and services.